Time;durP1;ratioP1;P1;durP2;ratioP2;P2;SDS_P1;SDS_P2;PMS_P1;PMS_P2;Temp;Humidity;BMP_temperature;BMP_pressure;BME280_temperature;BME280_humidity;BME280_pressure;Samples;Min_cycle;Max_cycle;Signal;HPM_P1;HPM_P2
2022/09/10 00:01:30;;;;;;;;;;;20.20;49.30;;;18.21;53.54;100799.09;12257833;19;20353;-89
2022/09/10 00:05:45;;;;;;;;;;;20.10;49.30;;;18.25;53.36;100803.13;12259763;19;19914;-91
2022/09/10 00:09:46;;;;;;;;;;;20.10;49.30;;;18.14;53.44;100796.13;12261047;19;19915;-89
2022/09/10 00:13:48;;;;;;;;;;;20.10;49.30;;;17.53;53.42;100707.09;12256974;19;19934;-89
2022/09/10 00:17:49;;;;;;;;;;;20.00;49.20;;;18.03;53.33;100797.06;12259672;19;20340;-90
2022/09/10 00:21:51;;;;;;;;;;;20.00;49.20;;;17.75;53.23;100760.72;12258162;19;19932;-90
2022/09/10 00:25:53;;;;;;;;;;;20.00;49.20;;;18.00;53.33;100815.00;12256065;19;19911;-89
2022/09/10 00:29:55;;;;;;;;;;;19.90;49.20;;;17.89;53.21;100806.16;12258007;19;20326;-89
2022/09/10 00:33:58;;;;;;;;;;;19.80;49.10;;;17.73;53.38;100794.34;12257707;19;19991;-91
2022/09/10 00:37:59;;;;;;;;;;;19.80;49.10;;;17.74;53.55;100806.59;12259228;19;19923;-91
2022/09/10 00:42:01;;;;;;;;;;;19.70;49.10;;;17.08;53.49;100715.25;12257229;19;19921;-90
2022/09/10 00:46:03;;;;;;;;;;;19.90;49.20;;;17.45;53.41;100780.81;12255083;19;19925;-90
2022/09/10 00:50:21;;;;;;;;;;;19.50;49.10;;;17.47;53.45;100800.84;12258571;19;20279;-90
2022/09/10 00:54:24;;;;;;;;;;;19.50;49.50;;;17.35;53.61;100801.84;12254863;19;19918;-90
2022/09/10 00:58:27;;;;;;;;;;;19.40;49.10;;;17.20;53.72;100782.84;12259316;19;19919;-90
2022/09/10 01:02:28;;;;;;;;;;;19.20;49.10;;;17.17;53.44;100803.38;12253312;19;20344;-89
2022/09/10 01:06:30;;;;;;;;;;;19.50;49.20;;;16.67;53.54;100737.06;12255052;19;19947;-90
2022/09/10 01:10:42;;;;;;;;;;;19.10;49.20;;;16.58;53.53;100736.03;12257042;19;19935;-90
2022/09/10 01:15:01;;;;;;;;;;;19.00;49.10;;;17.02;53.49;100813.38;12255919;19;19915;-90
2022/09/10 01:19:22;;;;;;;;;;;18.90;49.20;;;16.95;53.68;100809.56;12257022;19;19919;-90
2022/09/10 01:23:49;;;;;;;;;;;18.90;49.20;;;16.50;53.56;100743.69;12252452;19;19925;-90
2022/09/10 01:27:53;;;;;;;;;;;18.80;49.20;;;16.76;53.68;100781.97;12254543;19;19925;-91
2022/09/10 01:32:00;;;;;;;;;;;18.70;49.30;;;16.87;53.76;100799.63;12254929;19;19918;-89
2022/09/10 01:36:08;;;;;;;;;;;19.00;49.50;;;16.75;53.66;100772.41;12257077;19;19974;-89
2022/09/10 01:40:11;;;;;;;;;;;18.70;49.50;;;16.58;53.60;100741.28;12256249;19;19911;-90
2022/09/10 01:44:46;;;;;;;;;;;18.70;49.60;;;16.90;53.65;100791.44;12253988;19;19929;-89
2022/09/10 01:49:12;;;;;;;;;;;18.70;49.60;;;16.76;53.82;100781.16;12254348;19;19966;-89
2022/09/10 01:53:39;;;;;;;;;;;18.70;49.50;;;16.84;53.64;100789.31;12250807;19;19919;-89
2022/09/10 01:58:15;;;;;;;;;;;18.70;49.50;;;16.79;53.71;100784.41;12254072;19;19931;-90
2022/09/10 02:02:36;;;;;;;;;;;18.70;49.50;;;16.79;53.73;100788.84;12252134;19;19935;-90
2022/09/10 02:06:40;;;;;;;;;;;18.60;49.50;;;16.60;53.78;100761.28;12248878;19;19919;-90
2022/09/10 02:10:56;;;;;;;;;;;18.60;49.50;;;16.68;53.39;100781.75;12252408;19;19972;-90
2022/09/10 02:15:01;;;;;;;;;;;18.60;49.40;;;16.60;53.58;100784.16;12254626;19;19961;-90
2022/09/10 02:19:21;;;;;;;;;;;18.50;49.30;;;16.47;53.73;100778.19;12253684;19;19911;-90
2022/09/10 02:23:48;;;;;;;;;;;18.50;49.30;;;16.37;53.82;100783.38;12249601;19;19942;-90
2022/09/10 02:27:50;;;;;;;;;;;18.40;49.20;;;16.06;54.00;100753.28;12252285;19;20337;-90
2022/09/10 02:31:51;;;;;;;;;;;18.70;49.30;;;16.19;53.80;100790.06;12252207;19;19922;-90
2022/09/10 02:35:54;;;;;;;;;;;18.30;49.20;;;16.23;53.74;100810.81;12254218;19;19919;-91
2022/09/10 02:39:55;;;;;;;;;;;18.20;49.10;;;15.99;53.59;100789.81;12252848;19;19919;-89
2022/09/10 02:44:02;;;;;;;;;;;18.10;49.00;;;15.64;53.99;100748.56;12248036;19;19991;-90
2022/09/10 02:48:04;;;;;;;;;;;18.30;49.20;;;15.78;53.82;100789.66;12248898;19;19918;-90
2022/09/10 02:52:07;;;;;;;;;;;18.20;49.30;;;15.67;53.92;100776.44;12249294;19;19926;-90
2022/09/10 02:56:12;;;;;;;;;;;17.90;49.30;;;15.89;53.80;100813.38;12250163;19;19923;-90
2022/09/10 03:00:13;;;;;;;;;;;18.10;49.40;;;15.77;53.83;100789.78;12249114;19;19922;-90
2022/09/10 03:04:16;;;;;;;;;;;17.80;49.30;;;15.81;53.87;100814.94;12249265;19;19929;-90
2022/09/10 03:08:19;;;;;;;;;;;17.80;49.30;;;15.74;54.17;100811.91;12245026;19;20378;-91
2022/09/10 03:12:22;;;;;;;;;;;17.70;49.30;;;15.80;54.02;100818.53;12245836;19;19919;-90
2022/09/10 03:16:24;;;;;;;;;;;17.70;49.50;;;15.20;54.21;100705.41;12249445;19;19947;-89
2022/09/10 03:20:26;;;;;;;;;;;17.70;49.60;;;15.86;54.26;100811.00;12261264;19;19914;-91
2022/09/10 03:24:27;;;;;;;;;;;17.60;49.70;;;15.63;54.17;100765.28;12259242;19;20258;-90
2022/09/10 03:28:29;;;;;;;;;;;18.00;49.90;;;15.41;54.02;100731.88;12261107;19;19903;-90
2022/09/10 03:32:31;;;;;;;;;;;17.70;49.80;;;15.52;54.20;100743.38;12258123;19;19919;-91
2022/09/10 03:36:32;;;;;;;;;;;18.00;49.80;;;15.34;54.08;100709.63;12259893;19;19943;-89
2022/09/10 03:40:34;;;;;;;;;;;17.70;49.70;;;15.65;54.22;100773.09;12261138;19;19953;-89
2022/09/10 03:44:36;;;;;;;;;;;17.80;49.70;;;15.84;54.31;100799.72;12258896;19;19917;-90
2022/09/10 03:48:38;;;;;;;;;;;17.70;49.60;;;15.42;54.22;100736.19;12260078;19;19914;-89
2022/09/10 03:52:41;;;;;;;;;;;18.00;49.70;;;15.28;54.05;100715.31;12255942;19;20353;-89
2022/09/10 03:56:43;;;;;;;;;;;17.90;49.70;;;15.25;54.28;100716.38;12259571;19;19939;-90
2022/09/10 04:00:45;;;;;;;;;;;17.70;49.60;;;15.19;54.45;100716.03;12257551;19;19931;-88
2022/09/10 04:04:48;;;;;;;;;;;17.90;49.70;;;15.67;54.12;100805.41;12260209;19;19911;-89
2022/09/10 04:08:51;;;;;;;;;;;17.60;49.50;;;15.44;54.31;100779.00;12259479;19;19915;-89
2022/09/10 04:12:55;;;;;;;;;;;17.80;49.50;;;15.36;54.21;100770.00;12256765;19;19970;-90
2022/09/10 04:16:57;;;;;;;;;;;17.80;49.50;;;15.51;54.13;100813.63;12256394;19;19919;-90
2022/09/10 04:21:00;;;;;;;;;;;17.50;49.50;;;15.34;54.24;100798.22;12256793;19;19919;-90
2022/09/10 04:25:03;;;;;;;;;;;17.40;49.40;;;15.18;54.29;100793.28;12258784;19;20013;-91
2022/09/10 04:29:05;;;;;;;;;;;17.40;49.40;;;15.26;54.18;100810.16;12259133;19;19919;-89
2022/09/10 04:33:07;;;;;;;;;;;17.20;49.30;;;14.92;54.14;100774.13;12256403;19;20261;-88
2022/09/10 04:37:10;;;;;;;;;;;17.20;49.50;;;15.19;54.47;100805.47;12260801;19;20329;-89
2022/09/10 04:41:14;;;;;;;;;;;17.20;49.70;;;15.20;54.48;100799.25;12258934;19;19918;-89
2022/09/10 04:45:18;;;;;;;;;;;17.20;49.80;;;15.13;54.47;100790.97;12256199;19;19953;-88
2022/09/10 04:49:20;;;;;;;;;;;17.10;49.70;;;14.63;54.24;100710.50;12257614;19;19918;-90
2022/09/10 04:53:24;;;;;;;;;;;17.30;49.70;;;14.88;54.46;100773.53;12265821;19;19930;-90
2022/09/10 04:57:26;;;;;;;;;;;17.10;49.60;;;14.79;54.41;100750.50;12275170;19;20361;-91
2022/09/10 05:01:28;;;;;;;;;;;17.20;49.70;;;15.05;54.52;100799.41;12257099;19;19922;-87
2022/09/10 05:05:30;;;;;;;;;;;17.10;49.70;;;14.99;54.70;100788.53;12258395;19;19929;-89
2022/09/10 05:09:32;;;;;;;;;;;17.00;49.80;;;15.13;54.52;100812.03;12258545;19;19925;-89
2022/09/10 05:13:37;;;;;;;;;;;17.00;49.70;;;15.12;54.62;100814.75;12256741;19;19918;-89
2022/09/10 05:17:39;;;;;;;;;;;17.00;49.70;;;15.16;54.69;100824.94;12256519;19;19911;-89
2022/09/10 05:21:45;;;;;;;;;;;17.10;49.70;;;15.02;54.40;100810.16;12253285;19;19919;-87
2022/09/10 05:25:47;;;;;;;;;;;17.30;49.80;;;15.10;54.48;100814.88;12257353;19;20394;-89
2022/09/10 05:29:49;;;;;;;;;;;17.00;49.70;;;14.49;54.61;100733.34;12260257;19;19918;-87
2022/09/10 05:33:52;;;;;;;;;;;17.00;49.80;;;14.97;54.68;100808.81;12256978;19;19989;-88
2022/09/10 05:37:59;;;;;;;;;;;17.10;49.70;;;14.75;54.70;100776.19;12260758;19;19911;-88
2022/09/10 05:42:02;;;;;;;;;;;17.00;49.80;;;14.74;54.68;100771.03;12258614;19;19911;-87
2022/09/10 05:46:04;;;;;;;;;;;16.90;50.00;;;15.04;54.61;100824.06;12262406;19;19915;-88
2022/09/10 05:50:06;;;;;;;;;;;16.90;50.00;;;15.02;54.79;100817.22;12262158;19;19919;-87
2022/09/10 05:54:10;;;;;;;;;;;16.90;50.00;;;14.88;54.64;100807.72;12261750;19;19953;-88
2022/09/10 05:58:12;;;;;;;;;;;16.90;50.10;;;15.05;54.69;100819.63;12265986;19;19923;-86
2022/09/10 06:02:16;;;;;;;;;;;16.90;50.20;;;14.67;54.79;100756.66;12258589;19;20334;-88
2022/09/10 06:06:18;;;;;;;;;;;16.90;50.30;;;14.56;54.82;100728.53;12257352;19;19990;-87
2022/09/10 06:10:28;;;;;;;;;;;17.00;50.40;;;14.87;54.93;100766.56;12258425;19;19926;-87
2022/09/10 06:14:30;;;;;;;;;;;17.10;50.70;;;15.35;55.14;100832.31;12257991;19;20322;-86
2022/09/10 06:18:32;;;;;;;;;;;17.10;50.80;;;15.51;55.10;100828.56;12257069;19;19910;-86
2022/09/10 06:22:36;;;;;;;;;;;17.20;50.90;;;15.72;55.01;100834.06;12256041;19;19930;-86
2022/09/10 06:26:38;;;;;;;;;;;17.40;51.30;;;15.46;55.08;100761.31;12255567;19;19973;-86
2022/09/10 06:30:45;;;;;;;;;;;17.50;51.30;;;16.07;55.18;100834.03;12255268;19;19922;-87
2022/09/10 06:34:46;;;;;;;;;;;17.70;51.20;;;16.24;55.26;100838.81;12257727;19;20226;-85
2022/09/10 06:38:48;;;;;;;;;;;17.90;51.30;;;16.41;55.36;100837.50;12254783;19;19919;-86
2022/09/10 06:42:50;;;;;;;;;;;18.00;51.60;;;16.54;55.01;100838.22;12252628;19;19946;-87
2022/09/10 06:47:00;;;;;;;;;;;18.10;51.30;;;16.73;55.19;100842.88;12254745;19;20249;-88
2022/09/10 06:51:01;;;;;;;;;;;18.40;51.60;;;16.86;55.06;100845.44;12256603;19;19926;-88
2022/09/10 06:55:08;;;;;;;;;;;18.70;51.60;;;16.96;55.37;100838.47;12271350;19;19947;-86
2022/09/10 06:59:13;;;;;;;;;;;18.60;51.60;;;17.07;55.25;100845.50;12268053;19;20264;-87
2022/09/10 07:03:20;;;;;;;;;;;19.00;51.80;;;16.56;55.28;100741.41;12263831;19;19929;-87
2022/09/10 07:07:23;;;;;;;;;;;19.30;51.90;;;16.99;55.09;100795.16;12262931;19;19919;-88
2022/09/10 07:11:27;;;;;;;;;;;19.00;51.80;;;17.47;55.07;100852.81;12267028;19;19919;-88
2022/09/10 07:15:32;;;;;;;;;;;19.20;51.70;;;17.59;55.13;100841.25;12267018;19;20322;-87
2022/09/10 07:19:35;;;;;;;;;;;19.30;51.70;;;17.15;54.99;100761.28;12269952;19;20348;-88
2022/09/10 07:23:40;;;;;;;;;;;19.40;52.10;;;17.77;55.33;100827.44;12265742;19;19925;-88
2022/09/10 07:27:42;;;;;;;;;;;19.80;52.00;;;18.06;55.39;100852.28;12266983;19;19943;-88
2022/09/10 07:31:47;;;;;;;;;;;19.70;51.90;;;18.17;55.42;100834.69;12268679;19;19919;-87
2022/09/10 07:35:54;;;;;;;;;;;20.10;52.00;;;18.47;55.57;100850.56;12267465;19;20330;-85
2022/09/10 07:39:57;;;;;;;;;;;20.10;51.80;;;18.69;55.50;100840.78;12267638;19;19910;-88
2022/09/10 07:43:59;;;;;;;;;;;20.30;51.90;;;18.61;55.50;100785.06;12262036;19;19914;-88
2022/09/10 07:48:05;;;;;;;;;;;20.50;52.00;;;19.18;55.33;100824.03;12263674;19;19918;-87
2022/09/10 07:52:11;;;;;;;;;;;20.70;52.00;;;19.29;55.42;100809.81;12266392;19;20351;-87
2022/09/10 07:56:22;;;;;;;;;;;21.30;52.30;;;19.82;55.33;100843.00;12263388;19;19948;-86
2022/09/10 08:00:24;;;;;;;;;;;21.30;52.10;;;20.06;55.36;100843.41;12262091;19;19915;-87
2022/09/10 08:04:31;;;;;;;;;;;21.70;52.20;;;20.25;55.65;100834.53;12260434;19;19925;-86
2022/09/10 08:08:36;;;;;;;;;;;22.00;52.10;;;20.62;55.42;100854.94;12264507;19;19930;-87
2022/09/10 08:12:39;;;;;;;;;;;22.10;52.00;;;20.77;55.08;100837.53;12265675;19;19922;-87
2022/09/10 08:16:41;;;;;;;;;;;22.30;51.80;;;21.05;55.29;100844.66;12264804;19;19943;-87
2022/09/10 08:20:52;;;;;;;;;;;22.60;51.70;;;21.25;55.09;100855.97;12265525;19;20289;-87
2022/09/10 08:24:54;;;;;;;;;;;22.90;51.60;;;21.37;55.35;100842.34;12266468;19;20698;-87
2022/09/10 08:29:01;;;;;;;;;;;23.00;51.40;;;21.70;55.18;100855.06;12265391;19;19926;-86
2022/09/10 08:33:03;;;;;;;;;;;23.20;51.50;;;21.92;55.15;100853.75;12265503;19;19922;-87
2022/09/10 08:37:04;;;;;;;;;;;23.50;51.40;;;22.12;55.15;100852.56;12266462;19;19927;-86
2022/09/10 08:41:37;;;;;;;;;;;23.70;51.40;;;22.34;54.89;100859.19;12265589;19;19915;-86
2022/09/10 08:45:49;;;;;;;;;;;23.90;51.10;;;22.42;54.88;100856.56;12261910;19;19919;-87
2022/09/10 08:49:53;;;;;;;;;;;24.10;51.00;;;22.65;55.12;100871.97;12258987;19;19933;-88
2022/09/10 08:54:01;;;;;;;;;;;24.30;50.80;;;22.71;54.74;100855.34;12256729;19;19911;-86
2022/09/10 08:58:06;;;;;;;;;;;24.40;50.60;;;22.81;54.33;100866.72;12265624;19;20617;-86
2022/09/10 09:02:16;;;;;;;;;;;24.50;50.30;;;22.86;54.58;100868.91;12262089;19;19940;-87
2022/09/10 09:06:27;;;;;;;;;;;24.60;50.20;;;22.94;54.66;100861.78;12263345;19;19918;-87
2022/09/10 09:10:43;;;;;;;;;;;24.60;50.10;;;23.03;54.73;100865.31;12261487;19;20340;-87
2022/09/10 09:14:57;;;;;;;;;;;24.70;50.00;;;23.10;54.65;100838.88;12258335;19;19941;-86
2022/09/10 09:19:15;;;;;;;;;;;24.80;50.10;;;23.25;54.70;100847.91;12263246;19;19923;-86
2022/09/10 09:23:50;;;;;;;;;;;24.90;50.10;;;23.32;54.64;100840.91;12258940;19;19952;-87
2022/09/10 09:27:55;;;;;;;;;;;25.10;50.00;;;23.61;54.72;100852.91;12258897;19;19915;-87
2022/09/10 09:32:02;;;;;;;;;;;25.20;50.10;;;23.69;54.07;100831.59;12257186;19;19935;-87
2022/09/10 09:36:04;;;;;;;;;;;25.60;50.10;;;23.86;54.14;100845.75;12258645;19;19911;-86
2022/09/10 09:40:31;;;;;;;;;;;25.50;50.00;;;24.03;53.94;100854.56;12260304;19;19919;-86
2022/09/10 09:44:44;;;;;;;;;;;25.60;49.80;;;24.13;54.03;100857.06;12259375;19;20258;-88
2022/09/10 09:48:47;;;;;;;;;;;25.90;49.80;;;24.23;54.16;100847.03;12261329;19;19914;-87
2022/09/10 09:52:53;;;;;;;;;;;25.90;49.70;;;24.35;54.00;100842.97;12258145;19;19946;-87
2022/09/10 09:56:57;;;;;;;;;;;26.00;49.40;;;24.34;53.91;100819.13;12258751;19;19928;-85
2022/09/10 10:01:02;;;;;;;;;;;26.00;49.60;;;24.64;54.08;100845.06;12256820;19;19930;-86
2022/09/10 10:05:24;;;;;;;;;;;26.20;49.60;;;24.45;53.86;100792.91;12259457;19;19922;-86
2022/09/10 10:09:28;;;;;;;;;;;26.40;49.80;;;24.71;53.88;100835.38;12259205;19;19922;-88
2022/09/10 10:13:41;;;;;;;;;;;26.80;49.70;;;24.86;53.59;100832.78;12252980;19;19914;-86
2022/09/10 10:17:43;;;;;;;;;;;26.50;49.40;;;24.98;53.76;100840.38;12260964;19;19949;-86
2022/09/10 10:21:46;;;;;;;;;;;26.60;49.10;;;25.07;53.36;100842.00;12257039;19;20255;-88
2022/09/10 10:25:50;;;;;;;;;;;26.70;49.40;;;25.03;53.35;100821.97;12258703;19;19978;-87
2022/09/10 10:29:59;;;;;;;;;;;26.70;49.10;;;24.71;52.97;100749.91;12269871;19;19919;-86
2022/09/10 10:34:15;;;;;;;;;;;26.80;49.30;;;25.30;52.79;100828.69;12262961;19;19918;-86
2022/09/10 10:38:28;;;;;;;;;;;26.90;49.10;;;25.34;53.02;100824.66;12270558;19;20448;-86
2022/09/10 10:43:07;;;;;;;;;;;27.00;49.20;;;25.46;52.82;100833.88;12268233;19;19915;-85
2022/09/10 10:47:31;;;;;;;;;;;27.00;49.00;;;25.54;53.11;100828.47;12268697;19;19935;-86
2022/09/10 10:51:51;;;;;;;;;;;27.10;48.80;;;25.60;52.58;100825.09;12268256;19;19925;-86
2022/09/10 10:56:28;;;;;;;;;;;27.20;48.90;;;25.57;52.38;100816.59;12269407;19;19911;-85
2022/09/10 11:00:39;;;;;;;;;;;27.20;48.90;;;25.51;52.47;100810.13;12269463;19;19931;-87
2022/09/10 11:04:52;;;;;;;;;;;27.30;48.40;;;25.63;52.52;100825.72;12267474;19;19949;-87
2022/09/10 11:09:00;;;;;;;;;;;27.30;48.70;;;25.46;52.31;100795.63;12265613;19;19927;-87
2022/09/10 11:13:02;;;;;;;;;;;27.30;48.80;;;25.67;52.43;100830.53;12261431;19;19919;-87
2022/09/10 11:17:29;;;;;;;;;;;27.30;48.50;;;25.74;52.38;100822.66;12267477;19;19911;-86
2022/09/10 11:21:57;;;;;;;;;;;27.30;48.50;;;25.88;51.96;100826.38;12266250;19;19922;-85
2022/09/10 11:26:07;;;;;;;;;;;27.50;48.60;;;25.98;52.36;100817.06;12263857;19;19936;-86
2022/09/10 11:30:16;;;;;;;;;;;27.50;48.80;;;26.04;52.02;100815.50;12269289;19;19962;-86
2022/09/10 11:34:42;;;;;;;;;;;27.60;48.60;;;26.02;51.94;100806.81;12268796;19;19930;-85
2022/09/10 11:39:05;;;;;;;;;;;27.60;48.00;;;25.85;51.81;100816.88;12265952;19;19915;-85
2022/09/10 11:43:18;;;;;;;;;;;27.60;47.80;;;25.73;51.61;100807.59;12265940;19;19982;-86
2022/09/10 11:47:49;;;;;;;;;;;27.50;47.40;;;25.71;51.64;100814.97;12266221;19;19930;-86
2022/09/10 11:51:51;;;;;;;;;;;27.40;47.40;;;25.68;51.66;100807.28;12264847;19;19923;-85
2022/09/10 11:56:21;;;;;;;;;;;27.40;47.80;;;25.72;51.17;100808.59;12267376;19;19974;-85
2022/09/10 12:00:24;;;;;;;;;;;27.40;47.80;;;25.72;51.77;100798.72;12269192;19;19984;-86
2022/09/10 12:04:32;;;;;;;;;;;27.40;47.20;;;25.87;51.94;100789.91;12268441;19;19914;-86
2022/09/10 12:08:52;;;;;;;;;;;27.40;47.50;;;25.98;51.33;100803.69;12263142;19;19931;-87
2022/09/10 12:12:53;;;;;;;;;;;27.50;47.60;;;25.53;51.24;100706.47;12261619;19;20421;-84
2022/09/10 12:17:13;;;;;;;;;;;27.60;47.70;;;26.13;51.45;100798.31;12266926;19;19931;-86
2022/09/10 12:21:47;;;;;;;;;;;27.60;47.70;;;26.22;51.42;100796.38;12265865;19;19939;-86
2022/09/10 12:26:08;;;;;;;;;;;27.70;47.70;;;26.14;51.07;100799.16;12263050;19;19923;-87
2022/09/10 12:30:32;;;;;;;;;;;28.10;47.40;;;26.00;51.38;100798.97;12266148;19;20261;-86
2022/09/10 12:34:36;;;;;;;;;;;27.70;46.80;;;25.82;51.25;100782.44;12267967;19;19994;-85
2022/09/10 12:38:57;;;;;;;;;;;27.60;46.80;;;25.88;51.04;100796.94;12263405;19;19907;-88
2022/09/10 12:43:18;;;;;;;;;;;27.50;46.90;;;25.78;50.91;100789.97;12264151;19;19923;-86
2022/09/10 12:47:39;;;;;;;;;;;27.50;46.70;;;25.76;51.14;100784.00;12259206;19;20277;-86
2022/09/10 12:51:50;;;;;;;;;;;27.40;46.70;;;25.76;51.21;100786.66;12261408;19;19929;-85
2022/09/10 12:56:16;;;;;;;;;;;27.40;46.70;;;25.63;50.77;100764.22;12266110;19;20334;-87
2022/09/10 13:00:22;;;;;;;;;;;27.40;47.10;;;25.68;51.20;100769.84;12264879;19;19949;-86
2022/09/10 13:04:36;;;;;;;;;;;27.30;46.70;;;25.77;51.02;100771.44;12265084;19;19918;-85
2022/09/10 13:08:42;;;;;;;;;;;27.30;46.70;;;25.85;50.66;100768.72;12260511;19;19926;-86
2022/09/10 13:12:45;;;;;;;;;;;27.60;47.00;;;25.92;50.95;100764.25;12260576;19;19915;-86
2022/09/10 13:16:46;;;;;;;;;;;27.50;46.70;;;25.67;50.56;100728.06;12262566;19;19926;-86
2022/09/10 13:20:48;;;;;;;;;;;27.50;46.70;;;25.53;50.66;100705.66;12259952;19;20274;-85
2022/09/10 13:25:01;;;;;;;;;;;27.50;46.70;;;25.88;50.40;100760.31;12261823;19;19910;-86
2022/09/10 13:29:10;;;;;;;;;;;27.50;46.50;;;25.88;50.67;100752.28;12261913;19;19974;-85
2022/09/10 13:33:13;;;;;;;;;;;27.40;46.90;;;25.72;50.56;100736.38;12260654;19;19925;-86
2022/09/10 13:37:47;;;;;;;;;;;27.40;46.80;;;25.72;50.15;100737.22;12255530;19;19914;-86
2022/09/10 13:42:10;;;;;;;;;;;27.40;46.70;;;25.67;50.44;100739.59;12255247;19;19915;-86
2022/09/10 13:46:25;;;;;;;;;;;27.30;46.00;;;25.59;50.25;100745.03;12260610;19;19929;-86
2022/09/10 13:50:33;;;;;;;;;;;27.30;46.30;;;25.46;49.82;100724.25;12263098;19;20233;-86
2022/09/10 13:54:35;;;;;;;;;;;27.20;46.40;;;25.51;50.04;100743.25;12260630;19;19913;-86
2022/09/10 13:58:40;;;;;;;;;;;27.20;46.50;;;25.37;50.10;100736.06;12262790;19;19911;-86
2022/09/10 14:02:47;;;;;;;;;;;27.00;46.10;;;25.36;50.30;100732.56;12256605;19;19926;-85
2022/09/10 14:06:49;;;;;;;;;;;27.00;46.00;;;25.31;49.90;100737.59;12255451;19;19919;-86
2022/09/10 14:11:10;;;;;;;;;;;27.00;46.20;;;25.30;49.97;100752.00;12253552;19;19925;-86
2022/09/10 14:15:18;;;;;;;;;;;27.00;46.20;;;25.12;50.13;100719.38;12257070;19;19926;-86
2022/09/10 14:19:26;;;;;;;;;;;26.80;46.10;;;25.28;50.33;100750.53;12257211;19;19919;-86
2022/09/10 14:23:28;;;;;;;;;;;26.80;46.30;;;25.07;50.31;100730.59;12252357;19;19943;-87
2022/09/10 14:27:37;;;;;;;;;;;26.80;46.10;;;25.15;50.09;100754.63;12251256;19;19925;-87
2022/09/10 14:31:40;;;;;;;;;;;26.70;46.00;;;24.94;50.34;100719.69;12254276;19;19925;-87
2022/09/10 14:35:43;;;;;;;;;;;26.70;46.00;;;24.52;50.12;100680.94;12257090;19;19914;-86
2022/09/10 14:39:44;;;;;;;;;;;26.60;45.90;;;24.78;50.33;100733.16;12255984;19;19978;-86
2022/09/10 14:43:46;;;;;;;;;;;26.60;45.80;;;24.53;50.14;100722.63;12248847;19;19927;-87
2022/09/10 14:47:53;;;;;;;;;;;26.50;45.80;;;24.60;49.92;100746.78;12253500;19;19919;-87
2022/09/10 14:51:57;;;;;;;;;;;26.40;45.70;;;24.21;49.97;100705.75;12253191;19;19951;-86
2022/09/10 14:55:58;;;;;;;;;;;26.20;45.80;;;24.46;50.00;100751.03;12253993;19;19933;-85
2022/09/10 15:00:00;;;;;;;;;;;26.10;45.90;;;24.45;50.16;100754.72;12256844;19;19919;-84
2022/09/10 15:04:02;;;;;;;;;;;26.10;46.00;;;24.44;50.20;100753.06;12245311;19;19978;-84
2022/09/10 15:08:03;;;;;;;;;;;26.00;46.00;;;24.31;50.08;100742.09;12243487;19;19919;-84
2022/09/10 15:12:25;;;;;;;;;;;26.00;46.00;;;24.21;50.40;100735.09;12249510;19;19947;-84
2022/09/10 15:16:26;;;;;;;;;;;25.90;46.00;;;24.24;50.14;100756.09;12265925;19;19925;-84
2022/09/10 15:20:27;;;;;;;;;;;25.90;46.10;;;23.99;50.32;100725.19;12082116;19;3462122;-85
2022/09/10 15:24:30;;;;;;;;;;;25.80;46.10;;;23.93;49.92;100736.56;12270858;19;19922;-85
2022/09/10 15:28:32;;;;;;;;;;;25.80;46.30;;;24.04;50.35;100774.38;12271119;19;19957;-85
2022/09/10 15:32:33;;;;;;;;;;;26.00;46.30;;;23.64;50.40;100704.09;12263504;19;19907;-85
2022/09/10 15:36:37;;;;;;;;;;;25.60;46.30;;;23.88;50.20;100758.41;12271317;19;19922;-85
2022/09/10 15:40:39;;;;;;;;;;;25.60;46.30;;;23.75;50.32;100742.94;12265277;19;19944;-85
2022/09/10 15:44:41;;;;;;;;;;;25.50;46.30;;;23.80;50.29;100761.91;12266301;19;20274;-85
2022/09/10 15:48:43;;;;;;;;;;;25.40;46.20;;;23.72;50.08;100756.59;12267215;19;19911;-84
2022/09/10 15:52:45;;;;;;;;;;;25.30;46.30;;;23.52;50.02;100731.25;12273190;19;19918;-85
2022/09/10 15:56:46;;;;;;;;;;;25.30;46.30;;;23.73;50.36;100766.25;12288049;19;19940;-84
2022/09/10 16:00:48;;;;;;;;;;;25.30;46.50;;;23.61;49.91;100752.44;12278720;19;19929;-85
2022/09/10 16:04:49;;;;;;;;;;;25.30;46.50;;;23.62;50.06;100754.06;12292673;19;19914;-86
2022/09/10 16:08:55;;;;;;;;;;;25.20;46.40;;;23.77;50.36;100778.25;12298204;19;19923;-84
2022/09/10 16:12:57;;;;;;;;;;;25.30;46.60;;;23.67;50.38;100761.56;12301022;19;19911;-85
2022/09/10 16:16:59;;;;;;;;;;;25.30;46.50;;;23.85;49.94;100786.25;12305789;19;20265;-85
2022/09/10 16:21:10;;;;;;;;;;;25.30;46.50;;;23.34;50.30;100697.66;12302214;19;19911;-84
2022/09/10 16:25:12;;;;;;;;;;;25.30;46.40;;;23.81;49.85;100771.56;12297929;19;19914;-84
2022/09/10 16:29:16;;;;;;;;;;;25.40;46.40;;;23.90;49.99;100772.41;12302154;19;19936;-85
2022/09/10 16:33:18;;;;;;;;;;;25.50;46.40;;;23.92;49.76;100773.03;12300784;19;19918;-85
2022/09/10 16:37:22;;;;;;;;;;;25.50;46.40;;;24.03;49.89;100782.53;12303565;19;19939;-84
2022/09/10 16:41:24;;;;;;;;;;;25.70;46.50;;;23.94;49.95;100768.38;12302334;19;19940;-85
2022/09/10 16:45:26;;;;;;;;;;;25.50;46.20;;;23.96;50.01;100770.91;12301184;19;19943;-85
2022/09/10 16:49:27;;;;;;;;;;;25.60;46.40;;;24.07;49.99;100795.38;12304798;19;19918;-85
2022/09/10 16:53:29;;;;;;;;;;;25.60;46.50;;;24.02;49.76;100791.53;12303193;19;19961;-84
2022/09/10 16:57:30;;;;;;;;;;;25.60;46.70;;;23.88;49.86;100781.59;12305909;19;19899;-85
2022/09/10 17:01:35;;;;;;;;;;;25.50;46.70;;;23.87;50.04;100786.06;12303498;19;19907;-84
2022/09/10 17:05:37;;;;;;;;;;;25.50;46.70;;;23.86;49.99;100797.75;12304881;19;19921;-85
2022/09/10 17:09:39;;;;;;;;;;;25.60;46.90;;;23.75;50.34;100796.25;12301940;19;19939;-84
2022/09/10 17:13:40;;;;;;;;;;;25.40;46.90;;;23.65;50.21;100792.91;12301525;19;19915;-84
2022/09/10 17:17:42;;;;;;;;;;;25.30;47.10;;;23.68;50.55;100800.56;12304270;19;19923;-85
2022/09/10 17:21:46;;;;;;;;;;;25.30;47.30;;;23.58;50.43;100790.09;12301361;19;19903;-85
2022/09/10 17:25:48;;;;;;;;;;;25.20;47.40;;;23.55;50.51;100792.28;12305952;19;19951;-85
2022/09/10 17:29:49;;;;;;;;;;;25.20;47.50;;;23.59;50.34;100798.91;12306994;19;19922;-85
2022/09/10 17:33:51;;;;;;;;;;;25.20;47.50;;;23.42;50.66;100780.28;12300363;19;19919;-84
2022/09/10 17:37:52;;;;;;;;;;;25.50;47.70;;;23.44;50.22;100793.44;12303523;19;19911;-85
2022/09/10 17:41:55;;;;;;;;;;;25.20;47.80;;;23.34;50.60;100782.09;12301286;19;19939;-84
2022/09/10 17:45:57;;;;;;;;;;;25.10;47.70;;;23.32;50.45;100802.75;12301626;19;19943;-85
2022/09/10 17:49:58;;;;;;;;;;;25.10;47.70;;;23.28;50.66;100810.25;12303904;19;19943;-86
2022/09/10 17:54:02;;;;;;;;;;;25.10;47.80;;;23.16;50.41;100815.06;12298140;19;19915;-85
2022/09/10 17:58:03;;;;;;;;;;;25.20;47.80;;;23.24;50.61;100832.88;12302205;19;19911;-85
2022/09/10 18:02:05;;;;;;;;;;;24.80;47.70;;;22.83;50.44;100773.38;12297096;19;19911;-84
2022/09/10 18:06:09;;;;;;;;;;;25.00;47.80;;;23.09;50.71;100824.72;12297103;19;19950;-85
2022/09/10 18:10:10;;;;;;;;;;;24.80;47.80;;;23.12;50.52;100837.72;12299041;19;19911;-85
2022/09/10 18:14:20;;;;;;;;;;;25.00;47.90;;;23.05;50.44;100847.34;12285329;19;19910;-85
2022/09/10 18:18:21;;;;;;;;;;;24.70;47.70;;;22.62;50.90;100803.91;12290104;19;19919;-85
2022/09/10 18:22:23;;;;;;;;;;;24.60;47.60;;;22.84;50.99;100857.56;12285960;19;19972;-84
2022/09/10 18:26:26;;;;;;;;;;;24.60;47.60;;;22.85;50.81;100873.41;12291384;19;19910;-85
2022/09/10 18:30:28;;;;;;;;;;;24.50;47.50;;;22.70;50.95;100865.19;12297038;19;19922;-85